createdAt,value
2023-05-05T00:00:24.770Z,14.52
2023-05-05T00:01:25.552Z,14.51
2023-05-05T00:03:35.740Z,14.49
2023-05-05T00:04:50.362Z,14.49
2023-05-05T00:13:55.806Z,14.39
2023-05-05T00:14:57.232Z,14.37
2023-05-05T00:15:59.002Z,14.36
2023-05-05T00:17:00.787Z,14.35
2023-05-05T00:18:02.471Z,14.34
2023-05-05T00:19:04.183Z,14.33
2023-05-05T00:20:06.127Z,14.33
2023-05-05T00:21:07.673Z,14.31
2023-05-05T00:22:09.387Z,14.3
2023-05-05T00:23:11.194Z,14.29
2023-05-05T00:24:12.838Z,14.28
2023-05-05T00:25:14.594Z,14.26
2023-05-05T00:26:16.298Z,14.26
2023-05-05T00:27:18.038Z,14.24
2023-05-05T00:28:19.803Z,14.24
2023-05-05T00:29:21.515Z,14.22
2023-05-05T00:30:23.258Z,14.22
2023-05-05T00:31:25.051Z,14.19
2023-05-05T00:32:26.721Z,14.18
2023-05-05T00:33:28.449Z,14.16
2023-05-05T00:34:30.220Z,14.15
2023-05-05T00:35:31.949Z,14.15
2023-05-05T00:36:33.650Z,14.14
2023-05-05T00:37:35.380Z,14.13
2023-05-05T00:38:37.134Z,14.12
2023-05-05T00:39:38.873Z,14.12
2023-05-05T00:40:40.585Z,14.12
2023-05-05T00:41:42.322Z,14.11
2023-05-05T00:42:44.096Z,14.11
2023-05-05T00:43:45.778Z,14.11
2023-05-05T00:44:47.520Z,14.11
2023-05-05T00:45:49.277Z,14.12
2023-05-05T00:46:51.139Z,14.12
2023-05-05T00:47:52.771Z,14.12
2023-05-05T00:48:54.488Z,14.12
2023-05-05T00:49:56.216Z,14.11
2023-05-05T00:50:57.967Z,14.11
2023-05-05T00:51:59.676Z,14.1
2023-05-05T00:53:01.392Z,14.09
2023-05-05T00:54:03.127Z,14.08
2023-05-05T00:55:04.874Z,14.07
2023-05-05T00:56:06.599Z,14.07
2023-05-05T00:57:08.327Z,14.07
2023-05-05T00:58:10.085Z,14.07
2023-05-05T00:59:11.793Z,14.08
2023-05-05T01:00:13.594Z,14.09
2023-05-05T01:01:15.306Z,14.09
2023-05-05T01:02:16.999Z,14.09
2023-05-05T01:03:18.839Z,14.09
2023-05-05T01:04:20.490Z,14.09
2023-05-05T01:05:22.209Z,14.09
2023-05-05T01:06:23.981Z,14.08
2023-05-05T01:07:25.690Z,14.06
2023-05-05T01:08:27.425Z,14.06
2023-05-05T01:09:29.159Z,14.04
2023-05-05T01:10:31.043Z,14.03
2023-05-05T01:11:32.592Z,14.01
2023-05-05T01:12:34.353Z,13.99
2023-05-05T01:13:36.064Z,13.96
2023-05-05T01:14:37.802Z,13.94
2023-05-05T01:15:39.549Z,13.91
2023-05-05T01:16:41.349Z,13.88
2023-05-05T01:17:43.007Z,13.85
2023-05-05T01:18:44.722Z,13.81
2023-05-05T01:19:46.475Z,13.79
2023-05-05T01:20:48.211Z,13.75
2023-05-05T01:21:49.946Z,13.72
2023-05-05T01:22:51.667Z,13.68
2023-05-05T01:23:53.412Z,13.65
2023-05-05T01:24:55.164Z,13.62
2023-05-05T01:25:56.880Z,13.59
2023-05-05T01:26:58.603Z,13.54
2023-05-05T01:28:00.352Z,13.52
2023-05-05T01:29:02.131Z,13.48
2023-05-05T01:30:03.811Z,13.43
2023-05-05T01:31:05.560Z,13.37
2023-05-05T01:32:07.271Z,13.33
2023-05-05T01:33:08.994Z,13.27
2023-05-05T01:34:10.746Z,13.22
2023-05-05T01:35:12.481Z,13.15
2023-05-05T01:36:14.210Z,13.09
2023-05-05T01:37:15.945Z,13.02
2023-05-05T01:38:17.705Z,12.95
2023-05-05T01:39:19.409Z,12.89
2023-05-05T01:40:21.154Z,12.83
2023-05-05T01:41:22.882Z,12.76
2023-05-05T01:42:24.624Z,12.7
2023-05-05T01:43:26.346Z,12.64
2023-05-05T01:44:28.096Z,12.59
2023-05-05T01:45:29.890Z,12.53
2023-05-05T01:46:31.533Z,12.48
2023-05-05T01:47:33.298Z,12.42
2023-05-05T01:48:35.013Z,12.37
2023-05-05T01:49:36.744Z,12.33
2023-05-05T01:50:38.480Z,12.29
2023-05-05T01:51:40.224Z,12.27
2023-05-05T01:52:41.939Z,12.24
2023-05-05T01:53:43.682Z,12.21
2023-05-05T01:54:45.408Z,12.2
2023-05-05T01:55:47.156Z,12.17
2023-05-05T01:56:48.892Z,12.15
2023-05-05T01:57:50.627Z,12.14
2023-05-05T01:58:52.358Z,12.12
2023-05-05T01:59:54.101Z,12.11
2023-05-05T02:00:55.838Z,12.09
2023-05-05T02:01:58.078Z,12.07
2023-05-05T02:02:59.325Z,12.06
2023-05-05T02:04:01.010Z,12.04
2023-05-05T02:05:02.743Z,12.02
2023-05-05T02:06:04.484Z,12
2023-05-05T02:07:06.226Z,11.98
2023-05-05T02:08:07.921Z,11.96
2023-05-05T02:09:09.660Z,11.93
2023-05-05T02:10:11.410Z,11.91
2023-05-05T02:11:13.162Z,11.88
2023-05-05T02:12:14.855Z,11.87
2023-05-05T02:13:16.794Z,11.84
2023-05-05T02:14:18.358Z,11.82
2023-05-05T02:15:20.075Z,11.8
2023-05-05T02:16:21.919Z,11.78
2023-05-05T02:17:23.769Z,11.77
2023-05-05T02:18:25.289Z,11.75
2023-05-05T02:19:27.013Z,11.74
2023-05-05T02:20:28.752Z,11.72
2023-05-05T02:21:30.505Z,11.7
2023-05-05T02:22:32.216Z,11.69
2023-05-05T02:23:33.980Z,11.67
2023-05-05T02:24:35.761Z,11.65
2023-05-05T02:25:37.429Z,11.64
2023-05-05T02:26:39.147Z,11.63
2023-05-05T02:27:40.922Z,11.61
2023-05-05T02:28:42.643Z,11.59
2023-05-05T02:29:44.380Z,11.59
2023-05-05T02:30:46.134Z,11.58
2023-05-05T02:31:47.909Z,11.58
2023-05-05T02:32:49.628Z,11.59
2023-05-05T02:33:51.319Z,11.6
2023-05-05T02:34:53.037Z,11.61
2023-05-05T02:35:54.765Z,11.62
2023-05-05T02:36:56.511Z,11.63
2023-05-05T02:37:58.229Z,11.65
2023-05-05T02:38:59.955Z,11.67
2023-05-05T02:40:01.707Z,11.68
2023-05-05T02:41:03.448Z,11.7
2023-05-05T02:42:05.168Z,11.72
2023-05-05T02:43:06.956Z,11.73
2023-05-05T02:44:08.664Z,11.74
2023-05-05T02:45:10.376Z,11.75
2023-05-05T02:46:12.331Z,11.76
2023-05-05T02:47:13.819Z,11.77
2023-05-05T02:48:15.560Z,11.78
2023-05-05T02:49:17.315Z,11.79
2023-05-05T02:50:19.022Z,11.8
2023-05-05T02:51:20.764Z,11.81
2023-05-05T02:52:22.514Z,11.82
2023-05-05T02:53:24.242Z,11.83
2023-05-05T02:54:25.974Z,11.84
2023-05-05T02:55:27.710Z,11.85
2023-05-05T02:56:29.439Z,11.86
2023-05-05T02:57:31.175Z,11.86
2023-05-05T02:58:32.924Z,11.86
2023-05-05T02:59:34.725Z,11.86
2023-05-05T03:00:36.392Z,11.85
2023-05-05T03:01:38.141Z,11.84
2023-05-05T03:02:39.938Z,11.83
2023-05-05T03:03:41.717Z,11.83
2023-05-05T03:04:43.315Z,11.81
2023-05-05T03:05:45.042Z,11.8
2023-05-05T03:06:46.774Z,11.79
2023-05-05T03:07:48.500Z,11.77
2023-05-05T03:08:50.236Z,11.76
2023-05-05T03:09:51.993Z,11.75
2023-05-05T03:10:53.701Z,11.73
2023-05-05T03:11:55.472Z,11.7
2023-05-05T03:12:57.191Z,11.67
2023-05-05T03:13:58.927Z,11.66
2023-05-05T03:15:00.679Z,11.64
2023-05-05T03:16:02.390Z,11.63
2023-05-05T03:17:04.109Z,11.61
2023-05-05T03:18:05.929Z,11.6
2023-05-05T03:19:07.609Z,11.58
2023-05-05T03:20:09.442Z,11.57
2023-05-05T03:21:11.050Z,11.56
2023-05-05T03:22:12.808Z,11.54
2023-05-05T03:23:14.527Z,11.52
2023-05-05T03:24:16.282Z,11.51
2023-05-05T03:25:18.000Z,11.51
2023-05-05T03:26:19.727Z,11.5
2023-05-05T03:27:21.464Z,11.48
2023-05-05T03:28:23.187Z,11.47
2023-05-05T03:29:24.936Z,11.46
2023-05-05T03:30:26.651Z,11.45
2023-05-05T03:31:28.777Z,11.43
2023-05-05T03:32:30.147Z,11.41
2023-05-05T03:33:31.868Z,11.4
2023-05-05T03:34:33.582Z,11.38
2023-05-05T03:35:35.340Z,11.36
2023-05-05T03:36:37.101Z,11.36
2023-05-05T03:37:38.806Z,11.34
2023-05-05T03:38:40.533Z,11.33
2023-05-05T03:39:42.284Z,11.32
2023-05-05T03:40:44.764Z,11.31
2023-05-05T03:41:45.736Z,11.3
2023-05-05T03:42:47.469Z,11.28
2023-05-05T03:43:49.210Z,11.27
2023-05-05T03:44:50.932Z,11.26
2023-05-05T03:45:52.686Z,11.25
2023-05-05T03:46:54.437Z,11.24
2023-05-05T03:47:56.153Z,11.23
2023-05-05T03:48:57.845Z,11.23
2023-05-05T03:49:59.629Z,11.22
2023-05-05T03:51:01.352Z,11.21
2023-05-05T03:52:03.051Z,11.21
2023-05-05T03:53:04.891Z,11.2
2023-05-05T03:54:06.525Z,11.2
2023-05-05T03:55:08.291Z,11.19
2023-05-05T03:56:10.056Z,11.18
2023-05-05T03:57:11.743Z,11.18
2023-05-05T03:58:13.510Z,11.17
2023-05-05T03:59:15.221Z,11.17
2023-05-05T04:00:16.957Z,11.17
2023-05-05T04:01:18.694Z,11.17
2023-05-05T04:02:20.501Z,11.17
2023-05-05T04:03:22.423Z,11.18
2023-05-05T04:04:23.965Z,11.18
2023-05-05T04:05:25.617Z,11.18
2023-05-05T04:06:27.369Z,11.19
2023-05-05T04:07:29.082Z,11.19
2023-05-05T04:08:30.835Z,11.2
2023-05-05T04:09:32.574Z,11.21
2023-05-05T04:10:34.329Z,11.23
2023-05-05T04:11:36.013Z,11.25
2023-05-05T04:12:37.784Z,11.27
2023-05-05T04:13:39.483Z,11.3
2023-05-05T04:14:41.219Z,11.32
2023-05-05T04:15:42.977Z,11.35
2023-05-05T04:16:44.870Z,11.38
2023-05-05T04:17:46.435Z,11.4
2023-05-05T04:18:48.166Z,11.43
2023-05-05T04:19:49.879Z,11.46
2023-05-05T04:20:51.695Z,11.49
2023-05-05T04:21:53.342Z,11.51
2023-05-05T04:22:55.078Z,11.54
2023-05-05T04:23:56.847Z,11.57
2023-05-05T04:24:58.584Z,11.59
2023-05-05T04:26:00.289Z,11.61
2023-05-05T04:27:02.043Z,11.64
2023-05-05T04:28:03.763Z,11.67
2023-05-05T04:29:05.520Z,11.7
2023-05-05T04:30:07.385Z,11.72
2023-05-05T04:31:09.012Z,11.75
2023-05-05T04:32:10.713Z,11.77
2023-05-05T04:33:12.429Z,11.8
2023-05-05T04:34:14.174Z,11.82
2023-05-05T04:35:15.878Z,11.83
2023-05-05T04:36:17.642Z,11.85
2023-05-05T04:37:19.511Z,11.85
2023-05-05T04:38:21.178Z,11.86
2023-05-05T04:39:22.847Z,11.87
2023-05-05T04:40:24.564Z,11.88
2023-05-05T04:41:28.185Z,11.88
2023-05-05T04:42:28.048Z,11.88
2023-05-05T04:43:29.762Z,11.88
2023-05-05T04:44:31.505Z,11.88
2023-05-05T04:45:33.227Z,11.89
2023-05-05T04:46:35.032Z,11.88
2023-05-05T04:47:36.744Z,11.88
2023-05-05T04:48:38.421Z,11.88
2023-05-05T04:49:40.161Z,11.87
2023-05-05T04:50:41.898Z,11.87
2023-05-05T04:51:43.665Z,11.87
2023-05-05T04:52:45.357Z,11.86
2023-05-05T04:53:47.097Z,11.86
2023-05-05T04:54:48.851Z,11.84
2023-05-05T04:55:50.569Z,11.85
2023-05-05T04:56:52.314Z,11.85
2023-05-05T04:57:54.036Z,11.85
2023-05-05T04:58:55.750Z,11.86
2023-05-05T04:59:57.527Z,11.86
2023-05-05T05:00:59.220Z,11.87
2023-05-05T05:02:01.219Z,11.88
2023-05-05T05:03:02.810Z,11.89
2023-05-05T05:04:04.604Z,11.91
2023-05-05T05:05:06.164Z,11.93
2023-05-05T05:06:07.909Z,11.96
2023-05-05T05:07:09.677Z,12
2023-05-05T05:08:11.375Z,12.02
2023-05-05T05:09:13.231Z,12.08
2023-05-05T05:10:14.865Z,12.14
2023-05-05T05:11:16.568Z,12.2
2023-05-05T05:12:18.351Z,12.25
2023-05-05T05:13:20.143Z,12.31
2023-05-05T05:14:21.801Z,12.39
2023-05-05T05:15:23.549Z,12.45
2023-05-05T05:16:25.332Z,12.52
2023-05-05T05:17:27.051Z,12.58
2023-05-05T05:18:28.767Z,12.62
2023-05-05T05:19:30.461Z,12.68
2023-05-05T05:20:32.187Z,12.73
2023-05-05T05:21:35.214Z,12.78
2023-05-05T05:22:35.659Z,12.81
2023-05-05T05:23:37.385Z,12.84
2023-05-05T05:24:39.108Z,12.86
2023-05-05T05:25:40.846Z,12.89
2023-05-05T05:26:42.659Z,12.9
2023-05-05T05:27:45.518Z,12.93
2023-05-05T05:28:46.077Z,12.94
2023-05-05T05:29:47.802Z,12.96
2023-05-05T05:30:49.510Z,13.02
2023-05-05T05:31:51.276Z,13.09
2023-05-05T05:32:53.080Z,13.16
2023-05-05T05:33:54.727Z,13.24
2023-05-05T05:34:56.456Z,13.33
2023-05-05T05:35:58.207Z,13.4
2023-05-05T05:36:59.929Z,13.49
2023-05-05T05:38:01.671Z,13.61
2023-05-05T05:39:03.397Z,13.72
2023-05-05T05:40:05.121Z,13.84
2023-05-05T05:41:06.857Z,13.96
2023-05-05T05:42:08.591Z,14.08
2023-05-05T05:43:10.325Z,14.19
2023-05-05T05:44:12.065Z,14.32
2023-05-05T05:45:13.815Z,14.44
2023-05-05T05:46:15.587Z,14.56
2023-05-05T05:47:17.306Z,14.68
2023-05-05T05:48:18.975Z,14.82
2023-05-05T05:49:20.929Z,14.97
2023-05-05T05:50:22.548Z,15.12
2023-05-05T05:51:24.215Z,15.25
2023-05-05T05:52:25.949Z,15.41
2023-05-05T05:53:27.762Z,15.54
2023-05-05T05:54:29.420Z,15.64
2023-05-05T05:55:31.124Z,15.76
2023-05-05T05:56:32.925Z,15.88
2023-05-05T05:57:34.787Z,15.99
2023-05-05T05:58:36.321Z,16.07
2023-05-05T05:59:38.102Z,16.14
2023-05-05T06:00:39.796Z,16.2
2023-05-05T06:01:41.561Z,16.26
2023-05-05T06:03:00.885Z,16.32
2023-05-05T06:04:05.656Z,16.4
2023-05-05T06:05:07.343Z,16.45
2023-05-05T06:06:09.081Z,16.46
2023-05-05T06:07:10.798Z,16.56
2023-05-05T06:08:12.520Z,16.65
2023-05-05T06:09:14.278Z,16.72
2023-05-05T06:10:26.756Z,16.8
2023-05-05T06:11:17.733Z,16.89
2023-05-05T06:12:19.462Z,16.98
2023-05-05T06:13:21.200Z,17.06
2023-05-05T06:14:22.944Z,17.13
2023-05-05T06:15:24.693Z,17.15
2023-05-05T06:16:26.592Z,17.18
2023-05-05T06:17:28.139Z,17.21
2023-05-05T06:18:29.867Z,17.21
2023-05-05T06:19:31.793Z,17.22
2023-05-05T06:20:33.355Z,17.24
2023-05-05T06:21:35.084Z,17.29
2023-05-05T06:22:36.808Z,17.3
2023-05-05T06:23:38.511Z,17.31
2023-05-05T06:24:40.284Z,17.35
2023-05-05T06:25:41.991Z,17.41
2023-05-05T06:26:43.748Z,17.48
2023-05-05T06:27:45.478Z,17.56
2023-05-05T06:28:47.190Z,17.63
2023-05-05T06:29:48.939Z,17.72
2023-05-05T06:30:50.671Z,17.76
2023-05-05T06:31:52.503Z,17.84
2023-05-05T06:32:54.241Z,17.91
2023-05-05T06:33:55.857Z,17.98
2023-05-05T06:34:57.648Z,18.04
2023-05-05T06:35:59.353Z,18.14
2023-05-05T06:37:01.086Z,18.19
2023-05-05T06:38:02.808Z,18.27
2023-05-05T06:39:04.535Z,18.35
2023-05-05T06:40:06.426Z,18.43
2023-05-05T06:41:08.032Z,18.51
2023-05-05T06:42:09.743Z,18.59
2023-05-05T06:43:11.478Z,18.67
2023-05-05T06:44:13.245Z,18.74
2023-05-05T06:45:14.958Z,18.81
2023-05-05T06:46:16.724Z,18.89
2023-05-05T06:47:18.454Z,18.96
2023-05-05T06:48:20.149Z,19.04
2023-05-05T06:49:21.894Z,19.11
2023-05-05T06:50:23.639Z,19.19
2023-05-05T06:51:25.396Z,19.26
2023-05-05T06:52:27.090Z,19.34
2023-05-05T06:53:28.861Z,19.39
2023-05-05T06:54:30.583Z,19.47
2023-05-05T06:55:32.412Z,19.52
2023-05-05T06:56:34.040Z,19.62
2023-05-05T06:57:35.794Z,19.68
2023-05-05T06:58:37.532Z,19.76
2023-05-05T06:59:39.428Z,19.8
2023-05-05T07:00:41.024Z,19.88
2023-05-05T07:01:42.715Z,19.97
2023-05-05T07:02:44.707Z,20.02
2023-05-05T07:03:46.207Z,20.05
2023-05-05T07:04:47.903Z,20.08
2023-05-05T07:05:49.647Z,20.1
2023-05-05T07:06:51.400Z,20.16
2023-05-05T07:07:53.107Z,20.2
2023-05-05T07:08:54.872Z,20.25
2023-05-05T07:09:56.580Z,20.27
2023-05-05T07:10:58.331Z,20.3
2023-05-05T07:12:00.050Z,20.31
2023-05-05T07:13:01.983Z,20.32
2023-05-05T07:14:03.533Z,20.33
2023-05-05T07:15:19.126Z,20.35
2023-05-05T07:16:07.097Z,20.36
2023-05-05T07:17:08.785Z,20.4
2023-05-05T07:18:10.485Z,20.42
2023-05-05T07:19:12.210Z,20.46
2023-05-05T07:20:13.972Z,20.5
2023-05-05T07:21:15.672Z,20.54
2023-05-05T07:22:17.402Z,20.6
2023-05-05T07:23:19.130Z,20.65
2023-05-05T07:24:20.867Z,20.72
2023-05-05T07:25:22.648Z,20.78
2023-05-05T07:26:24.341Z,20.81
2023-05-05T07:27:26.075Z,20.81
2023-05-05T07:28:27.794Z,20.85
2023-05-05T07:29:29.542Z,20.9
2023-05-05T07:30:31.266Z,20.93
2023-05-05T07:31:33.006Z,20.98
2023-05-05T07:32:34.819Z,21.01
2023-05-05T07:33:36.541Z,21.04
2023-05-05T07:34:38.302Z,21.08
2023-05-05T07:35:39.930Z,21.11
2023-05-05T07:36:41.675Z,21.17
2023-05-05T07:37:43.401Z,21.2
2023-05-05T07:38:45.154Z,21.26
2023-05-05T07:39:46.890Z,21.32
2023-05-05T07:40:48.619Z,21.36
2023-05-05T07:41:50.331Z,21.43
2023-05-05T07:42:52.100Z,21.49
2023-05-05T07:43:53.804Z,21.54
2023-05-05T07:44:55.567Z,21.63
2023-05-05T07:45:57.323Z,21.7
2023-05-05T07:46:59.030Z,21.77
2023-05-05T07:48:00.982Z,21.83
2023-05-05T07:49:02.481Z,21.88
2023-05-05T07:50:04.235Z,21.9
2023-05-05T07:51:06.186Z,21.95
2023-05-05T07:52:07.701Z,21.98
2023-05-05T07:53:14.346Z,22.01
2023-05-05T07:54:11.151Z,22.03
2023-05-05T07:55:12.961Z,22.05
2023-05-05T07:56:14.628Z,22.05
2023-05-05T07:57:16.365Z,22.07
2023-05-05T07:58:18.101Z,22.09
2023-05-05T07:59:19.839Z,22.12
2023-05-05T08:00:21.768Z,22.15
2023-05-05T08:01:23.291Z,22.16
2023-05-05T08:02:25.135Z,22.17
2023-05-05T08:03:26.992Z,22.22
2023-05-05T08:04:31.286Z,22.23
2023-05-05T08:05:35.372Z,22.27
2023-05-05T08:06:37.122Z,22.29
2023-05-05T08:07:38.849Z,22.31
2023-05-05T08:08:40.565Z,22.36
2023-05-05T08:09:42.326Z,22.36
2023-05-05T08:10:44.062Z,22.37
2023-05-05T08:11:45.808Z,22.39
2023-05-05T08:12:47.622Z,22.36
2023-05-05T08:13:49.255Z,22.34
2023-05-05T08:14:50.984Z,22.35
2023-05-05T08:15:52.760Z,22.36
2023-05-05T08:16:54.467Z,22.35
2023-05-05T08:17:56.250Z,22.38
2023-05-05T08:18:57.915Z,22.41
2023-05-05T08:19:59.647Z,22.44
2023-05-05T08:21:01.385Z,22.44
2023-05-05T08:22:03.134Z,22.47
2023-05-05T08:23:04.861Z,22.49
2023-05-05T08:24:06.614Z,22.5
2023-05-05T08:25:08.604Z,22.55
2023-05-05T08:26:10.052Z,22.57
2023-05-05T08:27:11.780Z,22.61
2023-05-05T08:28:13.514Z,22.66
2023-05-05T08:29:15.257Z,22.72
2023-05-05T08:30:17.030Z,22.77
2023-05-05T08:31:18.748Z,22.85
2023-05-05T08:32:20.456Z,22.92
2023-05-05T08:33:22.202Z,22.98
2023-05-05T08:34:23.941Z,23.05
2023-05-05T08:35:25.671Z,23.09
2023-05-05T08:36:27.384Z,23.17
2023-05-05T08:37:29.123Z,23.23
2023-05-05T08:38:30.852Z,23.29
2023-05-05T08:39:32.599Z,23.31
2023-05-05T08:40:34.423Z,23.36
2023-05-05T08:41:36.066Z,23.38
2023-05-05T08:42:39.393Z,23.42
2023-05-05T08:43:39.565Z,23.47
2023-05-05T08:44:41.304Z,23.52
2023-05-05T08:45:43.021Z,23.56
2023-05-05T08:46:44.814Z,23.6
2023-05-05T08:47:46.535Z,23.62
2023-05-05T08:48:48.218Z,23.67
2023-05-05T08:49:49.947Z,23.7
2023-05-05T08:50:51.689Z,23.74
2023-05-05T08:51:53.411Z,23.74
2023-05-05T08:52:55.170Z,23.78
2023-05-05T08:53:56.908Z,23.77
2023-05-05T08:54:58.624Z,23.82
2023-05-05T08:56:00.354Z,23.8
2023-05-05T08:57:02.086Z,23.79
2023-05-05T08:58:04.280Z,23.74
2023-05-05T08:59:05.547Z,23.76
2023-05-05T09:00:07.307Z,23.76
2023-05-05T09:01:09.069Z,23.8
2023-05-05T09:02:10.861Z,23.82
2023-05-05T09:03:12.563Z,23.84
2023-05-05T09:04:14.267Z,23.83
2023-05-05T09:05:16.096Z,23.86
2023-05-05T09:06:17.683Z,23.85
2023-05-05T09:07:19.551Z,23.87
2023-05-05T09:08:21.185Z,23.9
2023-05-05T09:09:22.892Z,23.89
2023-05-05T09:10:24.665Z,23.81
2023-05-05T09:11:26.366Z,23.78
2023-05-05T09:12:28.097Z,23.72
2023-05-05T09:13:29.857Z,23.64
2023-05-05T09:14:31.586Z,23.66
2023-05-05T09:15:33.346Z,23.64
2023-05-05T09:16:35.119Z,23.61
2023-05-05T09:17:36.835Z,23.66
2023-05-05T09:18:38.523Z,23.65
2023-05-05T09:19:40.244Z,23.68
2023-05-05T09:20:41.969Z,23.66
2023-05-05T09:21:43.695Z,23.65
2023-05-05T09:22:45.489Z,23.65
2023-05-05T09:23:47.171Z,23.7
2023-05-05T09:24:48.908Z,23.74
2023-05-05T09:25:50.636Z,23.8
2023-05-05T09:26:52.361Z,23.83
2023-05-05T09:27:54.097Z,23.89
2023-05-05T09:28:55.852Z,23.92
2023-05-05T09:29:57.603Z,23.95
2023-05-05T09:30:59.340Z,23.91
2023-05-05T09:32:01.050Z,23.89
2023-05-05T09:33:02.814Z,23.91
2023-05-05T09:34:04.512Z,23.9
2023-05-05T09:35:06.550Z,23.92
2023-05-05T09:36:07.971Z,23.99
2023-05-05T09:37:09.735Z,24.04
2023-05-05T09:38:11.455Z,24.09
2023-05-05T09:39:13.248Z,24.13
2023-05-05T09:40:14.925Z,24.17
2023-05-05T09:41:16.644Z,24.25
2023-05-05T09:42:18.404Z,24.27
2023-05-05T09:43:20.120Z,24.4
2023-05-05T09:44:21.857Z,24.43
2023-05-05T09:45:23.592Z,24.55
2023-05-05T09:46:25.358Z,24.65
2023-05-05T09:47:29.944Z,24.71
2023-05-05T09:48:28.833Z,24.77
2023-05-05T09:49:30.507Z,24.81
2023-05-05T09:50:32.366Z,24.87
2023-05-05T09:51:33.986Z,24.87
2023-05-05T09:52:35.717Z,24.96
2023-05-05T09:53:37.462Z,25.04
2023-05-05T09:54:39.271Z,25.07
2023-05-05T09:55:40.932Z,25.13
2023-05-05T09:56:42.662Z,25.13
2023-05-05T09:57:44.407Z,25.16
2023-05-05T09:58:46.214Z,25.13
2023-05-05T09:59:47.864Z,25.17
2023-05-05T10:00:49.605Z,25.23
2023-05-05T10:01:51.406Z,25.27
2023-05-05T10:02:53.214Z,25.34
2023-05-05T10:03:54.801Z,25.34
2023-05-05T10:04:56.739Z,25.4
2023-05-05T10:05:58.271Z,25.51
2023-05-05T10:07:00.009Z,25.55
2023-05-05T10:08:01.746Z,25.6
2023-05-05T10:09:03.456Z,25.58
2023-05-05T10:10:05.306Z,25.57
2023-05-05T10:11:06.978Z,25.64
2023-05-05T10:12:08.671Z,25.7
2023-05-05T10:13:10.427Z,25.7
2023-05-05T10:14:12.142Z,25.71
2023-05-05T10:15:13.858Z,25.74
2023-05-05T10:16:15.614Z,25.72
2023-05-05T10:17:17.348Z,25.73
2023-05-05T10:18:19.083Z,25.78
2023-05-05T10:19:22.966Z,25.79
2023-05-05T10:21:03.592Z,25.8
2023-05-05T10:22:05.364Z,25.8
2023-05-05T10:23:07.120Z,25.72
2023-05-05T10:24:08.829Z,25.58
2023-05-05T10:25:10.589Z,25.54
2023-05-05T10:26:12.370Z,25.46
2023-05-05T10:27:14.048Z,25.41
2023-05-05T10:28:15.772Z,25.37
2023-05-05T10:29:17.499Z,25.37
2023-05-05T10:30:19.280Z,25.37
2023-05-05T10:31:26.396Z,25.35
2023-05-05T10:32:50.174Z,25.33
2023-05-05T10:33:30.827Z,25.28
2023-05-05T10:34:26.211Z,25.26
2023-05-05T10:35:27.934Z,25.25
2023-05-05T10:36:29.644Z,25.12
2023-05-05T10:37:31.378Z,25.09
2023-05-05T10:38:33.277Z,25.1
2023-05-05T10:39:34.877Z,25.12
2023-05-05T10:40:36.605Z,25.14
2023-05-05T10:41:38.323Z,25.13
2023-05-05T10:42:40.043Z,25.15
2023-05-05T10:43:41.780Z,25.17
2023-05-05T10:44:43.537Z,25.17
2023-05-05T10:45:45.385Z,25.13
2023-05-05T10:46:46.983Z,25.1
2023-05-05T10:47:48.740Z,25.1
2023-05-05T10:48:50.479Z,25.14
2023-05-05T10:49:52.258Z,25.13
2023-05-05T10:50:53.920Z,25.15
2023-05-05T10:51:55.644Z,25.16
2023-05-05T10:52:57.391Z,25.15
2023-05-05T10:53:59.150Z,25.2
2023-05-05T10:55:00.850Z,25.28
2023-05-05T10:56:02.616Z,25.28
2023-05-05T10:57:04.327Z,25.24
2023-05-05T10:58:06.078Z,25.22
2023-05-05T10:59:07.794Z,25.26
2023-05-05T11:00:09.696Z,25.24
2023-05-05T11:01:11.303Z,25.17
2023-05-05T11:02:13.034Z,25.13
2023-05-05T11:03:14.905Z,25.07
2023-05-05T11:04:16.542Z,25.05
2023-05-05T11:05:18.601Z,25.03
2023-05-05T11:06:19.942Z,25.05
2023-05-05T11:07:21.660Z,25.05
2023-05-05T11:08:23.466Z,25.07
2023-05-05T11:09:25.142Z,25.09
2023-05-05T11:10:26.873Z,25.09
2023-05-05T11:11:28.611Z,25.08
2023-05-05T11:12:30.623Z,25.1
2023-05-05T11:13:32.053Z,25.17
2023-05-05T11:14:33.814Z,25.21
2023-05-05T11:15:35.552Z,25.24
2023-05-05T11:16:37.318Z,25.23
2023-05-05T11:17:39.033Z,25.28
2023-05-05T11:18:40.733Z,25.22
2023-05-05T11:19:42.464Z,25.17
2023-05-05T11:20:44.201Z,25.22
2023-05-05T11:21:45.938Z,25.2
2023-05-05T11:22:47.669Z,25.16
2023-05-05T11:23:49.406Z,25.11
2023-05-05T11:24:51.147Z,25.1
2023-05-05T11:25:52.894Z,25.05
2023-05-05T11:26:54.786Z,24.97
2023-05-05T11:27:56.330Z,24.92
2023-05-05T11:28:58.099Z,24.95
2023-05-05T11:29:59.819Z,24.91
2023-05-05T11:31:01.762Z,24.92
2023-05-05T11:32:03.286Z,24.94
2023-05-05T11:33:05.024Z,25
2023-05-05T11:34:06.760Z,25.07
2023-05-05T11:35:08.497Z,25.13
2023-05-05T11:36:10.698Z,25.23
2023-05-05T11:37:11.938Z,25.36
2023-05-05T11:38:13.678Z,25.51
2023-05-05T11:39:15.453Z,25.63
2023-05-05T11:40:17.156Z,25.68
2023-05-05T11:41:18.879Z,25.79
2023-05-05T11:42:20.665Z,25.87
2023-05-05T11:43:22.369Z,25.99
2023-05-05T11:44:24.096Z,26.12
2023-05-05T11:45:25.820Z,26.22
2023-05-05T11:46:27.591Z,26.33
2023-05-05T11:47:29.371Z,26.39
2023-05-05T11:48:31.020Z,26.55
2023-05-05T11:49:32.758Z,26.68
2023-05-05T11:50:34.502Z,26.84
2023-05-05T11:51:36.217Z,26.82
2023-05-05T11:52:37.963Z,26.93
2023-05-05T11:53:39.690Z,26.87
2023-05-05T11:54:41.430Z,26.87
2023-05-05T11:55:43.151Z,26.96
2023-05-05T11:56:44.937Z,27.04
2023-05-05T11:57:46.628Z,27.05
2023-05-05T11:58:48.380Z,27.07
2023-05-05T11:59:50.104Z,27.11
2023-05-05T12:00:51.865Z,27.03
2023-05-05T12:01:53.615Z,27.04
2023-05-05T12:02:55.442Z,27.05
2023-05-05T12:11:57.572Z,26.68
2023-05-05T12:12:58.576Z,26.68
2023-05-05T12:14:00.293Z,26.7
2023-05-05T12:15:02.002Z,26.72
2023-05-05T12:16:03.807Z,26.75
2023-05-05T12:17:05.491Z,26.79
2023-05-05T12:18:07.303Z,26.86
2023-05-05T12:19:08.949Z,26.96
2023-05-05T12:20:11.214Z,27.04
2023-05-05T12:21:12.437Z,27.18
2023-05-05T12:22:14.136Z,27.16
2023-05-05T12:23:15.899Z,27.13
2023-05-05T12:24:17.632Z,26.97
2023-05-05T12:25:32.719Z,26.85
2023-05-05T12:26:34.498Z,26.63
2023-05-05T12:27:36.298Z,26.41
2023-05-05T12:28:37.955Z,26.15
2023-05-05T12:29:39.713Z,25.97
2023-05-05T12:30:41.457Z,25.79
2023-05-05T12:31:43.195Z,25.62
2023-05-05T12:32:44.980Z,25.49
2023-05-05T12:33:46.665Z,25.32
2023-05-05T12:34:48.381Z,25.18
2023-05-05T12:35:50.125Z,25.09
2023-05-05T12:36:51.841Z,25.2
2023-05-05T12:37:53.577Z,25.09
2023-05-05T12:38:55.396Z,24.99
2023-05-05T12:39:57.063Z,24.99
2023-05-05T12:40:58.783Z,25.03
2023-05-05T12:42:00.519Z,25.12
2023-05-05T12:43:02.228Z,25.21
2023-05-05T12:44:03.991Z,25.29
2023-05-05T12:45:05.728Z,25.39
2023-05-05T12:46:07.530Z,25.45
2023-05-05T12:47:09.166Z,25.49
2023-05-05T12:48:10.895Z,25.56
2023-05-05T12:49:12.637Z,25.64
2023-05-05T12:50:14.437Z,25.7
2023-05-05T12:51:16.114Z,25.75
2023-05-05T12:52:17.860Z,25.83
2023-05-05T12:53:19.576Z,25.88
2023-05-05T12:54:21.323Z,26.02
2023-05-05T12:55:23.046Z,26.01
2023-05-05T12:56:24.849Z,26.15
2023-05-05T12:57:26.512Z,26.29
2023-05-05T12:58:28.233Z,26.46
2023-05-05T12:59:29.989Z,26.66
2023-05-05T13:00:31.741Z,26.84
2023-05-05T13:01:33.543Z,27.08
2023-05-05T13:02:35.278Z,27.24
2023-05-05T13:03:37.037Z,27.31
2023-05-05T13:04:38.727Z,27.34
2023-05-05T13:05:40.388Z,27.5
2023-05-05T13:06:42.115Z,27.51
2023-05-05T13:07:43.860Z,27.51
2023-05-05T13:08:45.587Z,27.51
2023-05-05T13:09:47.469Z,27.49
2023-05-05T13:10:49.056Z,27.56
2023-05-05T13:11:50.800Z,27.59
2023-05-05T13:12:52.527Z,27.54
2023-05-05T13:13:54.235Z,27.57
2023-05-05T13:14:55.982Z,27.58
2023-05-05T13:15:57.833Z,27.6
2023-05-05T13:16:59.475Z,27.65
2023-05-05T13:18:01.484Z,27.69
2023-05-05T13:19:02.919Z,27.75
2023-05-05T13:20:04.649Z,27.79
2023-05-05T13:21:06.392Z,27.85
2023-05-05T13:22:08.109Z,27.82
2023-05-05T13:23:09.846Z,27.89
2023-05-05T13:24:26.075Z,27.9
2023-05-05T13:25:13.315Z,27.87
2023-05-05T13:26:15.037Z,27.86
2023-05-05T13:27:16.817Z,27.85
2023-05-05T13:28:18.505Z,27.72
2023-05-05T13:29:20.278Z,27.64
2023-05-05T13:30:21.980Z,27.64
2023-05-05T13:31:23.763Z,27.56
2023-05-05T13:32:25.474Z,27.48
2023-05-05T13:33:27.169Z,27.43
2023-05-05T13:34:28.953Z,27.36
2023-05-05T13:35:30.657Z,27.28
2023-05-05T13:36:32.371Z,27.15